Time;durP1;ratioP1;P1;durP2;ratioP2;P2;SDS_P1;SDS_P2;PMS_P1;PMS_P2;Temp;Humidity;BMP_temperature;BMP_pressure;BME280_temperature;BME280_humidity;BME280_pressure;Samples;Min_cycle;Max_cycle;Signal;HPM_P1;HPM_P2
2021/10/25 00:01:07;;;;;;;;;;;;;;;7.71;100.00;100328.69;5051992;28;20425;-84
2021/10/25 00:03:32;;;;;;;;;;;;;;;7.63;100.00;100329.53;5017864;28;20274;-84
2021/10/25 00:05:58;;;;;;;;;;;;;;;7.59;100.00;100327.34;5033850;28;19916;-85
2021/10/25 00:08:23;;;;;;;;;;;;;;;7.58;100.00;100329.19;5051906;28;19913;-81
2021/10/25 00:10:49;;;;;;;;;;;;;;;7.62;100.00;100337.72;5017120;28;19923;-84
2021/10/25 00:13:15;;;;;;;;;;;;;;;7.74;100.00;100333.72;5033876;28;19917;-82
2021/10/25 00:15:41;;;;;;;;;;;;;;;7.87;100.00;100349.28;5051731;28;20471;-85
2021/10/25 00:18:06;;;;;;;;;;;;;;;7.95;100.00;100368.00;5017772;28;19919;-82
2021/10/25 00:20:32;;;;;;;;;;;;;;;8.09;100.00;100367.31;5017512;28;20013;-82
2021/10/25 00:22:57;;;;;;;;;;;;;;;8.14;100.00;100354.25;5034144;28;20384;-84
2021/10/25 00:25:23;;;;;;;;;;;;;;;8.14;100.00;100356.09;5033664;28;20281;-83
2021/10/25 00:27:48;;;;;;;;;;;;;;;8.05;100.00;100366.00;5017509;28;19932;-83
2021/10/25 00:30:14;;;;;;;;;;;;;;;7.91;100.00;100356.81;5033882;28;19997;-83
2021/10/25 00:32:39;;;;;;;;;;;;;;;7.79;100.00;100352.78;5033726;28;20293;-84
2021/10/25 00:35:06;;;;;;;;;;;;;;;7.67;100.00;100346.94;5034147;28;19920;-82
2021/10/25 00:37:31;;;;;;;;;;;;;;;7.58;100.00;100350.59;5001255;28;19956;-81
2021/10/25 00:39:57;;;;;;;;;;;;;;;7.48;100.00;100356.09;5001322;28;19955;-82
2021/10/25 00:42:23;;;;;;;;;;;;;;;7.39;100.00;100354.44;5017367;28;19959;-83
2021/10/25 00:44:48;;;;;;;;;;;;;;;7.32;100.00;100349.91;5033780;28;19921;-84
2021/10/25 00:47:14;;;;;;;;;;;;;;;7.24;100.00;100354.22;5033472;28;19916;-81
2021/10/25 00:49:39;;;;;;;;;;;;;;;7.18;100.00;100349.53;5033575;28;19917;-82
2021/10/25 00:52:05;;;;;;;;;;;;;;;7.14;100.00;100355.38;5033525;28;19913;-83
2021/10/25 00:54:31;;;;;;;;;;;;;;;7.10;100.00;100343.34;5051560;28;19936;-82
2021/10/25 00:56:57;;;;;;;;;;;;;;;7.07;100.00;100347.19;5016993;28;20020;-85
2021/10/25 00:59:25;;;;;;;;;;;;;;;7.07;100.00;100349.84;5033110;28;20333;-84
2021/10/25 01:01:51;;;;;;;;;;;;;;;7.07;100.00;100341.84;5034022;28;20362;-82
2021/10/25 01:04:19;;;;;;;;;;;;;;;7.05;100.00;100355.34;5017181;28;19913;-82
2021/10/25 01:06:46;;;;;;;;;;;;;;;7.02;100.00;100342.31;5017235;28;19935;-84
2021/10/25 01:09:12;;;;;;;;;;;;;;;7.00;100.00;100346.97;5017044;28;20324;-81
2021/10/25 01:11:37;;;;;;;;;;;;;;;6.98;100.00;100348.16;5016839;28;19913;-81
2021/10/25 01:14:03;;;;;;;;;;;;;;;6.97;100.00;100346.47;5033615;28;19913;-82
2021/10/25 01:16:29;;;;;;;;;;;;;;;6.98;100.00;100348.97;5033264;28;19917;-82
2021/10/25 01:18:55;;;;;;;;;;;;;;;6.97;100.00;100349.16;5033450;28;19913;-82
2021/10/25 01:21:21;;;;;;;;;;;;;;;6.94;100.00;100346.81;5018979;28;19952;-83
2021/10/25 01:23:46;;;;;;;;;;;;;;;6.93;100.00;100345.13;5037007;28;19940;-82
2021/10/25 01:26:12;;;;;;;;;;;;;;;6.99;100.00;100344.50;5036989;28;19931;-83
2021/10/25 01:28:38;;;;;;;;;;;;;;;7.07;100.00;100341.00;5004057;28;19920;-83
2021/10/25 01:31:03;;;;;;;;;;;;;;;7.08;100.00;100340.00;5020758;28;19912;-82
2021/10/25 01:33:30;;;;;;;;;;;;;;;7.04;100.00;100334.97;5020682;28;19916;-84
2021/10/25 01:35:56;;;;;;;;;;;;;;;7.00;100.00;100343.47;5020828;28;19917;-81
2021/10/25 01:38:21;;;;;;;;;;;;;;;6.94;100.00;100347.66;5020450;28;20566;-82
2021/10/25 01:40:47;;;;;;;;;;;;;;;6.90;100.00;100351.63;5036787;28;19913;-83
2021/10/25 01:43:12;;;;;;;;;;;;;;;6.86;100.00;100352.97;5036470;28;19916;-83
2021/10/25 01:45:38;;;;;;;;;;;;;;;6.83;100.00;100353.28;5036775;28;19919;-83
2021/10/25 01:48:04;;;;;;;;;;;;;;;6.84;100.00;100362.97;5020155;28;20008;-80
2021/10/25 01:50:29;;;;;;;;;;;;;;;6.87;100.00;100357.31;5054270;28;19923;-83
2021/10/25 01:52:55;;;;;;;;;;;;;;;6.92;100.00;100352.31;5003359;28;20007;-83
2021/10/25 01:55:21;;;;;;;;;;;;;;;6.95;100.00;100360.00;5020091;28;19913;-84
2021/10/25 01:57:47;;;;;;;;;;;;;;;6.99;100.00;100372.06;5036580;28;19960;-83
2021/10/25 02:00:12;;;;;;;;;;;;;;;7.01;100.00;100363.84;5036373;28;19952;-82
2021/10/25 02:02:38;;;;;;;;;;;;;;;7.03;100.00;100361.84;5019858;28;19938;-83
2021/10/25 02:05:03;;;;;;;;;;;;;;;7.05;100.00;100359.88;5036441;28;19917;-84
2021/10/25 02:07:29;;;;;;;;;;;;;;;7.07;100.00;100351.69;5053901;28;19982;-84
2021/10/25 02:09:55;;;;;;;;;;;;;;;7.10;100.00;100346.84;5036017;28;19920;-84
2021/10/25 02:12:20;;;;;;;;;;;;;;;7.19;100.00;100351.19;5036301;28;20354;-82
2021/10/25 02:14:46;;;;;;;;;;;;;;;7.27;100.00;100353.91;5019544;28;19917;-84
2021/10/25 02:17:11;;;;;;;;;;;;;;;7.36;100.00;100361.97;5019734;28;20301;-81
2021/10/25 02:19:37;;;;;;;;;;;;;;;7.44;100.00;100362.78;5019835;28;19920;-84
2021/10/25 02:22:03;;;;;;;;;;;;;;;7.54;100.00;100351.09;5019888;28;20389;-82
2021/10/25 02:24:29;;;;;;;;;;;;;;;7.63;100.00;100350.09;5053591;28;19924;-83
2021/10/25 02:26:55;;;;;;;;;;;;;;;7.66;100.00;100347.91;5003297;28;19913;-83
2021/10/25 02:29:20;;;;;;;;;;;;;;;7.65;100.00;100346.25;5019573;28;19912;-82
2021/10/25 02:31:46;;;;;;;;;;;;;;;7.62;100.00;100353.78;5035636;28;19913;-81
2021/10/25 02:34:15;;;;;;;;;;;;;;;7.55;100.00;100350.09;5035015;28;19913;-82
2021/10/25 02:36:40;;;;;;;;;;;;;;;7.49;100.00;100354.28;5053436;28;20381;-81
2021/10/25 02:39:06;;;;;;;;;;;;;;;7.44;100.00;100356.63;5019158;28;19916;-84
2021/10/25 02:41:31;;;;;;;;;;;;;;;7.37;100.00;100356.44;5035491;28;19919;-81
2021/10/25 02:43:57;;;;;;;;;;;;;;;7.30;100.00;100363.41;5003141;28;19919;-82
2021/10/25 02:46:23;;;;;;;;;;;;;;;7.21;100.00;100369.78;5019323;28;19924;-81
2021/10/25 02:48:48;;;;;;;;;;;;;;;7.12;100.00;100374.28;5035351;28;20326;-84
2021/10/25 02:51:13;;;;;;;;;;;;;;;7.06;100.00;100369.56;5053393;28;20285;-82
2021/10/25 02:53:39;;;;;;;;;;;;;;;7.02;100.00;100360.19;5019046;28;19939;-83
2021/10/25 02:56:04;;;;;;;;;;;;;;;7.01;100.00;100359.38;5002902;28;19971;-83
2021/10/25 02:58:30;;;;;;;;;;;;;;;7.01;100.00;100359.38;5035399;28;20354;-82
2021/10/25 03:00:56;;;;;;;;;;;;;;;7.01;100.00;100351.34;5018930;28;19912;-81
2021/10/25 03:03:22;;;;;;;;;;;;;;;7.02;100.00;100360.19;5018736;28;20290;-81
2021/10/25 03:05:50;;;;;;;;;;;;;;;7.01;100.00;100359.38;5035084;28;19917;-81
2021/10/25 03:08:16;;;;;;;;;;;;;;;6.99;100.00;100353.34;5035213;28;19916;-81
2021/10/25 03:10:41;;;;;;;;;;;;;;;6.96;100.00;100351.00;5034832;28;19951;-83
2021/10/25 03:13:10;;;;;;;;;;;;;;;6.94;100.00;100349.47;5018958;28;19920;-81
2021/10/25 03:15:36;;;;;;;;;;;;;;;6.89;100.00;100341.13;5052436;28;20267;-83
2021/10/25 03:18:01;;;;;;;;;;;;;;;6.87;100.00;100351.13;5018634;28;19919;-83
2021/10/25 03:20:27;;;;;;;;;;;;;;;6.86;100.00;100347.63;5018378;28;19913;-84
2021/10/25 03:22:53;;;;;;;;;;;;;;;6.93;100.00;100347.78;5018358;28;19995;-84
2021/10/25 03:25:19;;;;;;;;;;;;;;;6.90;100.00;100346.28;5018502;28;20006;-82
2021/10/25 03:27:44;;;;;;;;;;;;;;;6.87;100.00;100341.25;5002031;28;19913;-83
2021/10/25 03:30:12;;;;;;;;;;;;;;;6.88;100.00;100347.44;5052264;28;19939;-83
2021/10/25 03:32:37;;;;;;;;;;;;;;;6.91;100.00;100341.78;5034754;28;19913;-82
2021/10/25 03:35:03;;;;;;;;;;;;;;;6.89;100.00;100349.13;5034772;28;19938;-84
2021/10/25 03:37:29;;;;;;;;;;;;;;;6.85;100.00;100345.94;5017953;28;19917;-84
2021/10/25 03:39:55;;;;;;;;;;;;;;;6.85;100.00;100345.94;5034399;28;20279;-82
2021/10/25 03:42:27;;;;;;;;;;;;;;;6.83;100.00;100345.28;5034750;28;19912;-80
2021/10/25 03:50:21;;;;;;;;;;;;;;;6.88;100.00;100345.63;5014309;28;19913;-80
2021/10/25 03:55:40;;;;;;;;;;;;;;;6.92;100.00;100349.63;5036086;28;20433;-83
2021/10/25 04:28:11;;;;;;;;;;;;;;;7.30;100.00;100371.44;4999671;28;19913;-82
2021/10/25 04:30:38;;;;;;;;;;;;;;;7.32;100.00;100369.44;5014393;28;19913;-82
2021/10/25 04:33:03;;;;;;;;;;;;;;;7.32;100.00;100372.13;4997793;28;19979;-83
2021/10/25 04:35:29;;;;;;;;;;;;;;;7.30;100.00;100374.13;4998239;28;20394;-85
2021/10/25 04:37:55;;;;;;;;;;;;;;;7.26;100.00;100375.47;5014267;28;19960;-82
2021/10/25 04:40:20;;;;;;;;;;;;;;;7.24;100.00;100374.78;5014162;28;19952;-83
2021/10/25 04:42:46;;;;;;;;;;;;;;;7.18;100.00;100384.31;5014097;28;19913;-83
2021/10/25 04:45:12;;;;;;;;;;;;;;;7.18;100.00;100386.16;4981770;28;20426;-84
2021/10/25 04:47:37;;;;;;;;;;;;;;;7.22;100.00;100383.00;4997427;28;19913;-83
2021/10/25 04:50:03;;;;;;;;;;;;;;;7.27;100.00;100393.19;4997517;28;19935;-81
2021/10/25 04:52:29;;;;;;;;;;;;;;;7.32;100.00;100398.88;4997869;28;19913;-84
2021/10/25 04:54:54;;;;;;;;;;;;;;;7.37;100.00;100403.75;4998017;28;19939;-82
2021/10/25 04:57:23;;;;;;;;;;;;;;;7.38;100.00;100397.38;5017476;28;19928;-81
2021/10/25 04:59:48;;;;;;;;;;;;;;;7.38;100.00;100397.38;4985748;28;20020;-83
2021/10/25 05:02:14;;;;;;;;;;;;;;;7.41;100.00;100400.59;5017680;28;20003;-82
2021/10/25 05:04:40;;;;;;;;;;;;;;;7.42;100.00;100394.22;5020697;28;19923;-82
2021/10/25 05:07:05;;;;;;;;;;;;;;;7.42;100.00;100396.91;5054981;28;20368;-80
2021/10/25 05:09:31;;;;;;;;;;;;;;;7.38;100.00;100395.56;5037648;28;20267;-80
2021/10/25 05:11:57;;;;;;;;;;;;;;;7.33;100.00;100391.69;5021132;28;20346;-82
2021/10/25 05:14:22;;;;;;;;;;;;;;;7.29;100.00;100385.84;5004968;28;19913;-82
2021/10/25 05:16:48;;;;;;;;;;;;;;;7.22;100.00;100398.16;5055038;28;19912;-83
2021/10/25 05:19:13;;;;;;;;;;;;;;;7.17;100.00;100392.47;5037573;28;19920;-82
2021/10/25 05:21:39;;;;;;;;;;;;;;;7.08;100.00;100393.47;5020834;28;20367;-82
2021/10/25 05:24:04;;;;;;;;;;;;;;;6.98;100.00;100386.41;5021018;28;20295;-82
2021/10/25 05:26:30;;;;;;;;;;;;;;;6.93;100.00;100388.75;5037163;28;19917;-82
2021/10/25 05:28:56;;;;;;;;;;;;;;;6.90;100.00;100383.69;5004247;28;19935;-82
2021/10/25 05:31:24;;;;;;;;;;;;;;;6.86;100.00;100387.72;5037077;28;19919;-81
2021/10/25 05:33:50;;;;;;;;;;;;;;;6.83;100.00;100386.19;5020771;28;19916;-81
2021/10/25 05:36:15;;;;;;;;;;;;;;;6.79;100.00;100392.84;5036991;28;19913;-82
2021/10/25 05:38:41;;;;;;;;;;;;;;;6.73;100.00;100398.00;5036677;28;20439;-82
2021/10/25 05:41:08;;;;;;;;;;;;;;;6.69;100.00;100401.97;5020473;28;19963;-82
2021/10/25 05:43:34;;;;;;;;;;;;;;;6.64;100.00;100405.13;5020695;28;19916;-82
2021/10/25 05:46:00;;;;;;;;;;;;;;;6.60;100.00;100407.28;5020522;28;19920;-81
2021/10/25 05:48:25;;;;;;;;;;;;;;;6.57;100.00;100407.59;5036481;28;19913;-80
2021/10/25 05:50:51;;;;;;;;;;;;;;;6.51;100.00;100412.72;5036364;28;20324;-82
2021/10/25 05:53:17;;;;;;;;;;;;;;;6.47;100.00;100409.53;5036493;28;19913;-81
2021/10/25 05:55:45;;;;;;;;;;;;;;;6.44;100.00;100409.88;5036804;28;20374;-83
2021/10/25 05:58:17;;;;;;;;;;;;;;;6.39;100.00;100413.00;5036698;28;20320;-80
2021/10/25 06:00:47;;;;;;;;;;;;;;;6.36;100.00;100418.66;5036700;28;19936;-81
2021/10/25 06:03:18;;;;;;;;;;;;;;;6.37;100.00;100419.47;5037222;28;19927;-82
2021/10/25 06:05:43;;;;;;;;;;;;;;;6.36;100.00;100417.81;5020360;28;20100;-83
2021/10/25 06:08:10;;;;;;;;;;;;;;;6.35;100.00;100422.34;5018767;28;19913;-80
2021/10/25 06:10:36;;;;;;;;;;;;;;;6.35;100.00;100421.47;5020401;28;20278;-81
2021/10/25 06:13:04;;;;;;;;;;;;;;;6.44;100.00;100420.53;5036280;28;19920;-82
2021/10/25 06:15:37;;;;;;;;;;;;;;;6.49;100.00;100420.91;5036468;28;19952;-82
2021/10/25 06:18:05;;;;;;;;;;;;;;;6.56;100.00;100424.63;5053446;28;20366;-82
2021/10/25 06:20:31;;;;;;;;;;;;;;;6.56;100.00;100426.44;5036323;28;19931;-84
2021/10/25 06:22:57;;;;;;;;;;;;;;;6.51;100.00;100421.59;5035870;28;20358;-84
2021/10/25 06:25:23;;;;;;;;;;;;;;;6.50;100.00;100419.91;5003393;28;19919;-82
2021/10/25 06:27:52;;;;;;;;;;;;;;;6.51;100.00;100424.28;5019373;28;20269;-84
2021/10/25 06:30:18;;;;;;;;;;;;;;;6.57;100.00;100420.13;5019668;28;19936;-83
2021/10/25 06:32:47;;;;;;;;;;;;;;;6.63;100.00;100429.34;5019340;28;19959;-81
2021/10/25 06:35:15;;;;;;;;;;;;;;;6.70;100.00;100435.72;5003655;28;20011;-81
2021/10/25 06:37:51;;;;;;;;;;;;;;;6.78;100.00;100449.13;5003381;28;19963;-81
2021/10/25 06:40:17;;;;;;;;;;;;;;;6.84;100.00;100451.16;5053483;28;19913;-81
2021/10/25 06:42:43;;;;;;;;;;;;;;;6.85;100.00;100466.19;5036012;28;19916;-81
2021/10/25 06:45:13;;;;;;;;;;;;;;;6.86;100.00;100475.91;5053078;28;19919;-81
2021/10/25 06:47:39;;;;;;;;;;;;;;;6.91;100.00;100481.59;5003560;28;19913;-80
2021/10/25 06:50:05;;;;;;;;;;;;;;;6.94;100.00;100500.00;5035199;28;19913;-82
2021/10/25 06:52:30;;;;;;;;;;;;;;;7.00;100.00;100479.81;5035727;28;19913;-81
2021/10/25 06:54:56;;;;;;;;;;;;;;;7.09;100.00;100457.44;5019244;28;20351;-79
2021/10/25 06:57:21;;;;;;;;;;;;;;;7.20;100.00;100451.00;5018827;28;20031;-80
2021/10/25 06:59:47;;;;;;;;;;;;;;;7.26;100.00;100456.53;5034905;28;19955;-82
2021/10/25 07:02:12;;;;;;;;;;;;;;;7.34;100.00;100458.41;5035401;28;19916;-81
2021/10/25 07:04:39;;;;;;;;;;;;;;;7.39;100.00;100464.09;5035161;28;20259;-80
2021/10/25 07:07:04;;;;;;;;;;;;;;;7.41;100.00;100470.13;5019027;28;19912;-80
2021/10/25 07:09:30;;;;;;;;;;;;;;;7.41;100.00;100467.44;5052892;28;19923;-81
2021/10/25 07:11:56;;;;;;;;;;;;;;;7.37;100.00;100476.78;5035385;28;19923;-83
2021/10/25 07:14:29;;;;;;;;;;;;;;;7.32;100.00;100473.75;5018592;28;19913;-81
2021/10/25 07:17:23;;;;;;;;;;;;;;;7.22;100.00;100467.69;5035411;28;20007;-82
2021/10/25 08:10:57;;;;;;;;;;;;;;;7.81;100.00;100550.69;5033980;28;19912;-80
2021/10/25 08:13:19;;;;;;;;;;;;;;;7.84;100.00;100555.72;5050946;28;19916;-84
2021/10/25 08:15:45;;;;;;;;;;;;;;;7.88;100.00;100560.56;5033770;28;19923;-83
2021/10/25 08:20:47;;;;;;;;;;;;;;;8.07;100.00;100558.59;5018834;28;19919;-82
2021/10/25 08:23:13;;;;;;;;;;;;;;;8.09;100.00;100557.44;5017785;28;19913;-82
2021/10/25 08:25:38;;;;;;;;;;;;;;;8.10;100.00;100563.66;5051670;28;19970;-81
2021/10/25 08:28:04;;;;;;;;;;;;;;;8.10;100.00;100563.66;5017589;28;19913;-82
2021/10/25 08:30:30;;;;;;;;;;;;;;;8.09;100.00;100573.50;5033153;28;19917;-83
2021/10/25 08:33:08;;;;;;;;;;;;;;;8.08;100.00;100568.31;5017737;28;19920;-81
2021/10/25 08:40:47;;;;;;;;;;;;;;;8.04;100.00;100564.28;5020012;28;19913;-82
2021/10/25 08:43:13;;;;;;;;;;;;;;;8.09;100.00;100564.63;5034059;28;19942;-83
2021/10/25 08:45:38;;;;;;;;;;;;;;;8.14;100.00;100575.69;5017555;28;20385;-80
2021/10/25 08:48:05;;;;;;;;;;;;;;;8.18;100.00;100566.34;5033194;28;19955;-81
2021/10/25 08:50:33;;;;;;;;;;;;;;;8.19;100.00;100570.69;5051253;28;19924;-83
2021/10/25 08:52:59;;;;;;;;;;;;;;;8.24;100.00;100571.03;5017386;28;20332;-82
2021/10/25 08:55:25;;;;;;;;;;;;;;;8.26;100.00;100579.75;5017340;28;19912;-82
2021/10/25 08:57:51;;;;;;;;;;;;;;;8.28;100.00;100583.09;5033663;28;19921;-83
2021/10/25 09:00:17;;;;;;;;;;;;;;;8.31;100.00;100571.22;5033965;28;19913;-81
2021/10/25 09:02:43;;;;;;;;;;;;;;;8.31;100.00;100580.09;5051600;28;20154;-81
2021/10/25 09:05:16;;;;;;;;;;;;;;;8.28;100.00;100577.75;5033526;28;20007;-82
2021/10/25 09:07:51;;;;;;;;;;;;;;;8.40;100.00;100585.47;5034342;28;19913;-83
2021/10/25 09:10:49;;;;;;;;;;;;;;;8.46;100.00;100585.63;5017390;28;20351;-83
2021/10/25 09:13:19;;;;;;;;;;;;;;;8.52;100.00;100581.44;4973679;28;20360;-81
2021/10/25 09:15:48;;;;;;;;;;;;;;;8.69;100.00;100590.34;5016982;28;20370;-82
2021/10/25 09:18:14;;;;;;;;;;;;;;;8.86;100.00;100600.06;5033222;28;19913;-82
2021/10/25 09:20:43;;;;;;;;;;;;;;;9.08;100.00;100595.84;5051282;28;19965;-81
2021/10/25 09:23:09;;;;;;;;;;;;;;;9.29;100.00;100591.78;5051121;28;19913;-81
2021/10/25 09:25:36;;;;;;;;;;;;;;;9.55;100.00;100591.53;5033401;28;19920;-81
2021/10/25 09:28:07;;;;;;;;;;;;;;;9.72;100.00;100593.16;5033300;28;19920;-82
2021/10/25 09:30:39;;;;;;;;;;;;;;;9.71;100.00;100590.63;5033299;28;19959;-82
2021/10/25 09:33:05;;;;;;;;;;;;;;;9.69;100.00;100593.50;5017525;28;19912;-80
2021/10/25 09:35:41;;;;;;;;;;;;;;;9.80;100.00;100611.91;5016699;28;19916;-82
2021/10/25 09:38:20;;;;;;;;;;;;;;;9.89;100.00;100610.03;5017421;28;19978;-81
2021/10/25 09:46:22;;;;;;;;;;;;;;;9.77;100.00;100601.53;5037744;28;20374;-81
2021/10/25 09:49:14;;;;;;;;;;;;;;;9.85;100.00;100606.84;5023468;28;19912;-82
2021/10/25 09:51:49;;;;;;;;;;;;;;;9.83;100.00;100608.03;5006672;28;20267;-83
2021/10/25 09:54:19;;;;;;;;;;;;;;;9.98;100.00;100608.97;5019914;28;20389;-83
2021/10/25 09:56:52;;;;;;;;;;;;;;;10.14;100.00;100600.00;5020010;28;19916;-80
2021/10/25 10:02:22;;;;;;;;;;;;;;;11.00;100.00;100612.31;5008155;28;19913;-80
2021/10/25 10:04:52;;;;;;;;;;;;;;;11.01;100.00;100602.41;5036858;28;20386;-80
2021/10/25 10:07:18;;;;;;;;;;;;;;;10.88;100.00;100605.72;5036335;28;19912;-82
2021/10/25 10:09:44;;;;;;;;;;;;;;;10.73;100.00;100619.09;5019814;28;19942;-83
2021/10/25 10:12:10;;;;;;;;;;;;;;;10.51;100.00;100611.88;5036401;28;19920;-80
2021/10/25 10:14:36;;;;;;;;;;;;;;;10.39;100.00;100611.44;5036252;28;20000;-82
2021/10/25 10:17:02;;;;;;;;;;;;;;;10.44;100.00;100619.00;5020053;28;20011;-80
2021/10/25 10:19:27;;;;;;;;;;;;;;;10.44;100.00;100617.13;5035930;28;20298;-82
2021/10/25 10:21:54;;;;;;;;;;;;;;;10.55;100.00;100613.19;5035882;28;20370;-82
2021/10/25 10:24:24;;;;;;;;;;;;;;;10.84;100.00;100615.16;5019639;28;20437;-83
2021/10/25 10:26:54;;;;;;;;;;;;;;;11.09;100.00;100617.63;5020506;28;19999;-82
2021/10/25 10:29:20;;;;;;;;;;;;;;;11.28;100.00;100619.78;5035830;28;20397;-81
2021/10/25 10:31:46;;;;;;;;;;;;;;;11.28;100.00;100610.88;5019598;28;19913;-82
2021/10/25 10:34:12;;;;;;;;;;;;;;;11.25;100.00;100612.09;5019286;28;20354;-83
2021/10/25 10:36:52;;;;;;;;;;;;;;;10.95;100.00;100614.69;5036203;28;20046;-81
2021/10/25 10:39:18;;;;;;;;;;;;;;;10.89;100.00;100617.31;5035427;28;20412;-81
2021/10/25 10:41:54;;;;;;;;;;;;;;;10.96;100.00;100602.94;5035856;28;19917;-84
2021/10/25 10:44:20;;;;;;;;;;;;;;;11.11;100.00;100611.03;5003060;28;20424;-81
2021/10/25 10:46:48;;;;;;;;;;;;;;;11.36;100.00;100606.25;5035381;28;19913;-81
2021/10/25 10:49:23;;;;;;;;;;;;;;;11.76;99.58;100608.66;5053299;28;19913;-81
2021/10/25 10:52:03;;;;;;;;;;;;;;;12.18;97.58;100613.34;5053438;28;19913;-83
2021/10/25 10:54:40;;;;;;;;;;;;;;;12.62;95.67;100612.38;5018935;28;19995;-82
2021/10/25 10:57:21;;;;;;;;;;;;;;;12.93;94.32;100624.69;5018691;28;20290;-83
2021/10/25 10:59:50;;;;;;;;;;;;;;;12.92;93.24;100614.94;5021059;28;19912;-82
2021/10/25 11:02:21;;;;;;;;;;;;;;;12.82;93.33;100626.03;5019618;28;19912;-83
2021/10/25 11:04:47;;;;;;;;;;;;;;;12.91;93.94;100621.34;5019198;28;19917;-81
2021/10/25 11:07:12;;;;;;;;;;;;;;;12.84;93.91;100626.69;5034924;28;19913;-82
2021/10/25 11:09:40;;;;;;;;;;;;;;;12.90;93.12;100619.69;5034690;28;20313;-81
2021/10/25 11:12:07;;;;;;;;;;;;;;;13.03;92.56;100625.19;5019305;28;19912;-83
2021/10/25 11:14:34;;;;;;;;;;;;;;;13.56;91.82;100620.19;5035346;28;19912;-82
2021/10/25 11:17:26;;;;;;;;;;;;;;;14.14;89.74;100619.84;5019083;28;19996;-81
2021/10/25 11:19:55;;;;;;;;;;;;;;;14.21;90.16;100630.66;5021287;28;19923;-84
2021/10/25 11:22:24;;;;;;;;;;;;;;;14.89;87.68;100627.94;5035379;28;20556;-83
2021/10/25 11:24:50;;;;;;;;;;;;;;;15.43;85.43;100634.16;5034585;28;20267;-83
2021/10/25 11:27:20;;;;;;;;;;;;;;;15.92;84.17;100641.78;5018221;28;20313;-83
2021/10/25 11:29:46;;;;;;;;;;;;;;;15.02;88.17;100640.66;5034456;28;19913;-83
2021/10/25 11:32:12;;;;;;;;;;;;;;;14.76;88.20;100639.56;5034810;28;20003;-82
2021/10/25 11:34:45;;;;;;;;;;;;;;;13.54;92.13;100638.44;5034499;28;19919;-83
2021/10/25 11:37:16;;;;;;;;;;;;;;;12.84;95.43;100656.38;5018728;28;19924;-85
2021/10/25 11:39:46;;;;;;;;;;;;;;;12.47;96.76;100652.06;5018423;28;20328;-83
2021/10/25 11:42:12;;;;;;;;;;;;;;;12.26;98.13;100642.91;5034891;28;19967;-81
2021/10/25 11:44:39;;;;;;;;;;;;;;;12.19;98.25;100641.97;5017888;28;19920;-83
2021/10/25 11:47:04;;;;;;;;;;;;;;;12.51;96.65;100640.66;5034394;28;19917;-82
2021/10/25 11:49:33;;;;;;;;;;;;;;;12.21;97.90;100660.66;5034291;28;19919;-84
2021/10/25 11:51:58;;;;;;;;;;;;;;;12.04;99.04;100673.50;5002012;28;19918;-81
2021/10/25 11:54:24;;;;;;;;;;;;;;;12.01;98.18;100679.25;5034523;28;19917;-82
2021/10/25 11:56:53;;;;;;;;;;;;;;;12.98;94.49;100670.81;5017929;28;20267;-83
2021/10/25 11:59:19;;;;;;;;;;;;;;;12.73;95.65;100668.50;5018074;28;19938;-83
2021/10/25 12:01:46;;;;;;;;;;;;;;;12.72;95.59;100677.63;5034005;28;19912;-83
2021/10/25 12:04:12;;;;;;;;;;;;;;;12.83;94.86;100668.16;5017991;28;19913;-82
2021/10/25 12:06:37;;;;;;;;;;;;;;;14.97;87.09;100675.63;5016915;28;19921;-83
2021/10/25 12:09:04;;;;;;;;;;;;;;;16.48;81.86;100664.69;5051976;28;20281;-83
2021/10/25 12:14:15;;;;;;;;;;;;;;;17.93;75.64;100664.59;5036448;28;19913;-83
2021/10/25 12:16:44;;;;;;;;;;;;;;;17.39;76.44;100671.63;5017978;28;20373;-83
2021/10/25 12:19:09;;;;;;;;;;;;;;;15.73;80.78;100661.66;5018145;28;19912;-82
2021/10/25 12:21:35;;;;;;;;;;;;;;;14.54;84.88;100665.16;5017670;28;20354;-81
2021/10/25 12:24:01;;;;;;;;;;;;;;;14.89;84.00;100672.06;5033887;28;19917;-82
2021/10/25 12:26:27;;;;;;;;;;;;;;;14.08;87.09;100674.72;5001137;28;19913;-81
2021/10/25 12:28:52;;;;;;;;;;;;;;;13.64;88.78;100670.53;5033914;28;20061;-82
2021/10/25 12:31:20;;;;;;;;;;;;;;;15.13;84.87;100662.50;5033729;28;20420;-82
2021/10/25 12:33:50;;;;;;;;;;;;;;;16.73;80.88;100672.09;5034153;28;19912;-82
2021/10/25 12:36:21;;;;;;;;;;;;;;;16.41;80.24;100670.19;5034190;28;20003;-82
2021/10/25 12:38:47;;;;;;;;;;;;;;;15.01;85.03;100671.47;5033747;28;19912;-83
2021/10/25 12:41:12;;;;;;;;;;;;;;;14.34;88.02;100668.56;5016575;28;19913;-82
2021/10/25 12:43:38;;;;;;;;;;;;;;;14.10;88.97;100664.53;5033857;28;19917;-83
2021/10/25 12:46:06;;;;;;;;;;;;;;;13.66;90.97;100667.63;5033916;28;19921;-83
2021/10/25 12:48:42;;;;;;;;;;;;;;;13.57;91.92;100667.78;5017551;28;19912;-83
2021/10/25 12:51:08;;;;;;;;;;;;;;;14.51;89.69;100659.06;5033549;28;19963;-82
2021/10/25 12:53:33;;;;;;;;;;;;;;;16.95;82.03;100653.59;5017138;28;19913;-80
2021/10/25 12:55:59;;;;;;;;;;;;;;;18.11;76.45;100662.94;5033286;28;20007;-83
2021/10/25 12:58:25;;;;;;;;;;;;;;;18.81;74.34;100656.97;5033598;28;19919;-82
2021/10/25 13:00:51;;;;;;;;;;;;;;;19.23;72.18;100652.31;5001256;28;20324;-81
2021/10/25 13:03:16;;;;;;;;;;;;;;;19.47;71.01;100660.50;5033587;28;19963;-80
2021/10/25 13:05:48;;;;;;;;;;;;;;;19.53;70.69;100649.50;5017217;28;19969;-83
2021/10/25 13:08:14;;;;;;;;;;;;;;;19.94;71.32;100652.31;5017445;28;20377;-82
2021/10/25 13:10:41;;;;;;;;;;;;;;;20.29;69.81;100651.38;5017202;28;19913;-79
2021/10/25 13:13:08;;;;;;;;;;;;;;;20.38;69.22;100655.41;5033409;28;19913;-81
2021/10/25 13:15:33;;;;;;;;;;;;;;;19.59;72.46;100650.44;5017360;28;19913;-81
2021/10/25 13:18:00;;;;;;;;;;;;;;;18.69;74.06;100651.47;5036048;28;19913;-81
2021/10/25 13:20:27;;;;;;;;;;;;;;;19.45;71.70;100649.84;5037352;28;19995;-81
2021/10/25 13:22:54;;;;;;;;;;;;;;;20.38;70.72;100644.47;5020550;28;19917;-81
2021/10/25 13:25:20;;;;;;;;;;;;;;;21.19;70.55;100647.03;5004558;28;19920;-82
2021/10/25 13:27:45;;;;;;;;;;;;;;;21.73;69.70;100639.13;5003693;28;19913;-82
2021/10/25 13:30:12;;;;;;;;;;;;;;;21.68;67.70;100636.31;5037167;28;19917;-81
2021/10/25 13:32:38;;;;;;;;;;;;;;;21.52;66.77;100632.53;5020328;28;20141;-81
2021/10/25 13:35:04;;;;;;;;;;;;;;;21.46;66.31;100628.03;5037316;28;20334;-80
2021/10/25 13:37:30;;;;;;;;;;;;;;;21.25;63.70;100624.16;5036800;28;19912;-83
2021/10/25 13:39:56;;;;;;;;;;;;;;;21.25;61.37;100624.16;5036838;28;19916;-82
2021/10/25 13:42:21;;;;;;;;;;;;;;;21.38;59.30;100625.72;5054604;28;19913;-83
2021/10/25 13:44:49;;;;;;;;;;;;;;;20.42;59.58;100624.63;5036976;28;19959;-82
2021/10/25 13:47:15;;;;;;;;;;;;;;;19.90;60.69;100624.69;5020560;28;19912;-82
2021/10/25 13:49:40;;;;;;;;;;;;;;;19.41;61.24;100621.41;5020622;28;19913;-81
2021/10/25 13:52:06;;;;;;;;;;;;;;;19.85;60.23;100629.22;5054285;28;20427;-81
2021/10/25 13:54:32;;;;;;;;;;;;;;;20.07;59.14;100624.75;5054588;28;19916;-80
2021/10/25 13:56:58;;;;;;;;;;;;;;;20.55;57.35;100631.72;5054325;28;19955;-80
2021/10/25 13:59:23;;;;;;;;;;;;;;;20.93;54.13;100624.75;5036658;28;19966;-81
2021/10/25 14:01:49;;;;;;;;;;;;;;;20.20;54.12;100631.84;5020242;28;19912;-83
2021/10/25 14:04:18;;;;;;;;;;;;;;;20.52;51.37;100629.44;5036432;28;19920;-82
2021/10/25 14:06:43;;;;;;;;;;;;;;;18.59;54.73;100626.69;5053855;28;20338;-82
2021/10/25 14:09:09;;;;;;;;;;;;;;;17.04;58.27;100625.09;5036218;28;19943;-81
2021/10/25 14:11:43;;;;;;;;;;;;;;;15.94;60.05;100631.56;5036275;28;20374;-80
2021/10/25 14:14:25;;;;;;;;;;;;;;;14.82;62.97;100617.13;5036373;28;19939;-80
2021/10/25 14:16:52;;;;;;;;;;;;;;;14.35;63.92;100626.16;5022136;28;19912;-81
2021/10/25 14:19:18;;;;;;;;;;;;;;;14.79;63.83;100627.50;5035942;28;19983;-81
2021/10/25 14:21:43;;;;;;;;;;;;;;;14.44;64.25;100633.84;5019932;28;19913;-82
2021/10/25 14:24:09;;;;;;;;;;;;;;;14.19;64.77;100633.59;5035937;28;19965;-80